createdAt,value
2023-05-23T00:02:13.975Z,99875.97
2023-05-23T00:04:43.121Z,99871.75
2023-05-23T00:07:10.986Z,99875.28
2023-05-23T00:09:38.653Z,99873.28
2023-05-23T00:12:07.175Z,99863.97
2023-05-23T00:14:35.617Z,99870.53
2023-05-23T00:17:03.895Z,99868.94
2023-05-23T00:19:32.220Z,99871.84
2023-05-23T00:21:59.943Z,99876.59
2023-05-23T00:24:27.647Z,99861.75
2023-05-23T00:26:55.254Z,99866.66
2023-05-23T00:29:22.904Z,99864.50
2023-05-23T00:31:51.565Z,99862.50
2023-05-23T00:34:19.474Z,99858.66
2023-05-23T00:36:48.301Z,99863.91
2023-05-23T00:39:19.968Z,99870.94
2023-05-23T00:41:51.084Z,99881.69
2023-05-23T00:44:20.680Z,99878.00
2023-05-23T00:46:48.567Z,99872.63
2023-05-23T00:49:20.332Z,99880.69
2023-05-23T00:51:49.844Z,99887.72
2023-05-23T00:54:17.748Z,99885.75
2023-05-23T00:56:46.023Z,99881.34
2023-05-23T00:59:13.855Z,99892.94
2023-05-23T01:01:41.508Z,99900.00
2023-05-23T01:04:09.520Z,99896.50
2023-05-23T01:06:37.806Z,99902.84
2023-05-23T01:09:17.548Z,99896.63
2023-05-23T01:11:45.178Z,99894.09
2023-05-23T01:14:12.852Z,99898.66
2023-05-23T01:16:40.937Z,99901.47
2023-05-23T01:19:08.912Z,99899.78
2023-05-23T01:21:36.624Z,99894.41
2023-05-23T01:24:05.122Z,99893.56
2023-05-23T01:26:32.971Z,99901.06
2023-05-23T01:29:00.831Z,99893.19
2023-05-23T01:31:28.506Z,99906.09
2023-05-23T01:33:56.515Z,99894.97
2023-05-23T01:36:24.947Z,99899.22
2023-05-23T01:38:52.715Z,99905.88
2023-05-23T01:41:20.803Z,99904.50
2023-05-23T01:43:48.469Z,99910.47
2023-05-23T01:46:16.518Z,99909.91
2023-05-23T01:48:44.303Z,99918.44
2023-05-23T01:51:11.975Z,99921.41
2023-05-23T01:53:39.682Z,99917.19
2023-05-23T01:56:07.521Z,99916.34
2023-05-23T01:58:35.558Z,99917.34
2023-05-23T02:01:03.304Z,99922.00
2023-05-23T02:03:31.358Z,99924.84
2023-05-23T02:05:59.029Z,99931.06
2023-05-23T02:08:26.822Z,99931.88
2023-05-23T02:10:54.855Z,99931.06
2023-05-23T02:13:22.456Z,99934.56
2023-05-23T02:15:50.053Z,99932.75
2023-05-23T02:18:18.286Z,99928.19
2023-05-23T02:20:45.944Z,99931.75
2023-05-23T02:23:13.924Z,99931.88
2023-05-23T02:25:41.895Z,99940.78
2023-05-23T02:28:09.733Z,99937.41
2023-05-23T02:30:37.328Z,99942.91
2023-05-23T02:33:05.294Z,99942.06
2023-05-23T02:35:33.384Z,99946.59
2023-05-23T02:38:00.985Z,99943.06
2023-05-23T02:40:28.667Z,99944.19
2023-05-23T02:42:57.414Z,99941.69
2023-05-23T02:45:26.586Z,99933.66
2023-05-23T02:47:54.652Z,99932.66
2023-05-23T02:50:22.330Z,99926.44
2023-05-23T02:52:49.939Z,99932.66
2023-05-23T02:55:17.616Z,99935.31
2023-05-23T02:57:45.380Z,99938.00
2023-05-23T03:00:13.933Z,99933.66
2023-05-23T03:02:41.664Z,99936.31
2023-05-23T03:05:09.383Z,99921.91
2023-05-23T03:07:37.147Z,99924.59
2023-05-23T03:10:04.967Z,99924.59
2023-05-23T03:12:32.967Z,99934.31
2023-05-23T03:15:00.578Z,99932.34
2023-05-23T03:17:28.263Z,99935.00
2023-05-23T03:19:56.002Z,99935.88
2023-05-23T03:22:23.627Z,99935.00
2023-05-23T03:24:51.620Z,99935.19
2023-05-23T03:27:19.216Z,99929.81
2023-05-23T03:29:48.283Z,99932.34
2023-05-23T03:32:15.992Z,99930.50
2023-05-23T03:34:43.853Z,99935.69
2023-05-23T03:37:11.472Z,99938.38
2023-05-23T03:39:39.940Z,99936.56
2023-05-23T03:42:07.707Z,99937.41
2023-05-23T03:44:35.348Z,99932.06
2023-05-23T03:47:03.074Z,99939.94
2023-05-23T03:49:31.074Z,99938.09
2023-05-23T03:51:59.033Z,99938.94
2023-05-23T03:54:26.674Z,99949.50
2023-05-23T03:56:54.274Z,99946.69
2023-05-23T03:59:21.917Z,99949.25
2023-05-23T04:01:49.938Z,99945.56
2023-05-23T04:04:18.530Z,99952.59
2023-05-23T04:06:46.224Z,99960.78
2023-05-23T04:09:14.131Z,99969.97
2023-05-23T04:11:42.615Z,99969.97
2023-05-23T04:14:11.564Z,99966.59
2023-05-23T04:16:41.902Z,99967.59
2023-05-23T04:19:09.719Z,99971.28
2023-05-23T04:21:37.398Z,99972.28
2023-05-23T04:24:05.073Z,99978.59
2023-05-23T04:26:33.428Z,99981.59
2023-05-23T04:29:02.133Z,99980.91
2023-05-23T04:31:30.245Z,99980.22
2023-05-23T04:33:57.997Z,99981.91
2023-05-23T04:36:25.904Z,99980.91
2023-05-23T04:38:54.390Z,99985.28
2023-05-23T04:41:23.796Z,99986.28
2023-05-23T04:43:54.772Z,99982.59
2023-05-23T04:46:27.055Z,99981.59
2023-05-23T04:48:55.504Z,99988.66
2023-05-23T04:51:23.161Z,99983.28
2023-05-23T04:53:50.843Z,99985.13
2023-05-23T04:56:21.909Z,99995.69
2023-05-23T04:58:50.083Z,99997.38
2023-05-23T05:01:18.118Z,99999.91
2023-05-23T05:03:45.835Z,100004.28
2023-05-23T05:06:13.582Z,100007.81
2023-05-23T05:08:41.957Z,100009.97
2023-05-23T05:11:09.809Z,100009.09
2023-05-23T05:13:37.693Z,100009.09
2023-05-23T05:16:05.339Z,100012.78
2023-05-23T05:18:33.351Z,100015.78
2023-05-23T05:21:01.391Z,100015.78
2023-05-23T05:23:30.388Z,100013.09
2023-05-23T05:25:58.379Z,100006.72
2023-05-23T05:28:26.030Z,100009.28
2023-05-23T05:30:54.699Z,100011.66
2023-05-23T05:33:23.772Z,100018.69
2023-05-23T05:35:52.567Z,100021.25
2023-05-23T05:38:20.638Z,100021.94
2023-05-23T05:40:48.642Z,100021.25
2023-05-23T05:43:16.495Z,100036.19
2023-05-23T05:45:44.145Z,100035.19
2023-05-23T05:48:12.269Z,100031.38
2023-05-23T05:50:40.664Z,100037.56
2023-05-23T05:53:08.830Z,100032.94
2023-05-23T05:55:36.494Z,100038.81
2023-05-23T05:58:04.160Z,100044.03
2023-05-23T06:00:31.851Z,100039.53
2023-05-23T06:03:00.494Z,100045.03
2023-05-23T06:05:28.251Z,100052.22
2023-05-23T06:07:55.856Z,100053.94
2023-05-23T06:10:24.730Z,100049.53
2023-05-23T06:12:52.674Z,100061.25
2023-05-23T06:15:20.915Z,100055.22
2023-05-23T06:17:48.654Z,100062.44
2023-05-23T06:20:16.531Z,100053.53
2023-05-23T06:22:44.411Z,100058.19
2023-05-23T06:25:12.221Z,100059.34
2023-05-23T06:27:40.304Z,100057.78
2023-05-23T06:30:08.072Z,100055.97
2023-05-23T06:32:35.897Z,100059.47
2023-05-23T06:35:03.617Z,100059.78
2023-05-23T06:37:31.724Z,100058.09
2023-05-23T06:39:59.756Z,100066.13
2023-05-23T06:42:27.498Z,100068.97
2023-05-23T06:44:55.547Z,100071.78
2023-05-23T06:47:23.497Z,100070.94
2023-05-23T06:49:51.312Z,100071.78
2023-05-23T06:52:19.022Z,100078.13
2023-05-23T06:54:46.698Z,100081.81
2023-05-23T06:57:14.474Z,100084.81
2023-05-23T06:59:42.115Z,100091.13
2023-05-23T07:02:09.803Z,100083.06
2023-05-23T07:04:37.907Z,100075.03
2023-05-23T07:07:05.564Z,100090.28
2023-05-23T07:09:33.228Z,100091.13
2023-05-23T07:12:01.061Z,100095.53
2023-05-23T07:14:28.901Z,100110.75
2023-05-23T07:16:57.011Z,100109.50
2023-05-23T07:19:24.816Z,100124.03
2023-05-23T07:21:52.521Z,100120.66
2023-05-23T07:24:20.254Z,100120.94
2023-05-23T07:26:48.011Z,100124.03
2023-05-23T07:29:16.306Z,100127.72
2023-05-23T07:31:44.114Z,100129.97
2023-05-23T07:34:11.977Z,100133.09
2023-05-23T07:36:41.103Z,100137.88
2023-05-23T07:39:09.036Z,100144.66
2023-05-23T07:41:37.202Z,100146.09
2023-05-23T07:44:04.908Z,100147.34
2023-05-23T07:46:32.769Z,100147.50
2023-05-23T07:49:00.864Z,100149.44
2023-05-23T07:51:31.020Z,100152.28
2023-05-23T07:53:59.103Z,100163.56
2023-05-23T07:56:27.188Z,100167.09
2023-05-23T07:58:54.837Z,100173.44
2023-05-23T08:01:22.842Z,100173.44
2023-05-23T08:03:50.660Z,100177.22
2023-05-23T08:06:18.763Z,100172.72
2023-05-23T08:08:46.517Z,100178.78
2023-05-23T08:11:15.200Z,100180.22
2023-05-23T08:13:43.391Z,100180.63
2023-05-23T08:16:11.355Z,100180.63
2023-05-23T08:18:40.137Z,100174.28
2023-05-23T08:21:07.993Z,100183.16
2023-05-23T08:23:35.784Z,100190.78
2023-05-23T08:26:03.626Z,100183.59
2023-05-23T08:28:31.590Z,100197.69
2023-05-23T08:31:01.510Z,100200.09
2023-05-23T08:33:29.309Z,100202.78
2023-05-23T08:35:57.038Z,100188.53
2023-05-23T08:38:24.933Z,100202.06
2023-05-23T08:40:53.013Z,100192.47
2023-05-23T08:43:21.173Z,100196.59
2023-05-23T08:45:48.918Z,100189.94
2023-05-23T08:48:16.880Z,100190.22
2023-05-23T08:50:44.708Z,100194.88
2023-05-23T08:53:19.974Z,100192.31
2023-05-23T08:55:48.179Z,100188.38
2023-05-23T08:58:16.411Z,100198.94
2023-05-23T09:00:44.379Z,100209.66
2023-05-23T09:03:13.241Z,100208.16
2023-05-23T09:05:40.955Z,100215.75
2023-05-23T09:08:09.053Z,100217.44
2023-05-23T09:10:36.755Z,100225.06
2023-05-23T09:13:04.505Z,100222.94
2023-05-23T09:15:32.816Z,100226.19
2023-05-23T09:18:00.687Z,100228.44
2023-05-23T09:20:29.237Z,100228.88
2023-05-23T09:22:57.159Z,100231.25
2023-05-23T09:25:24.830Z,100232.13
2023-05-23T09:27:52.702Z,100236.63
2023-05-23T09:30:20.622Z,100237.75
2023-05-23T09:32:48.932Z,100240.84
2023-05-23T09:35:16.819Z,100245.09
2023-05-23T09:37:46.207Z,100245.69
2023-05-23T09:40:14.475Z,100248.63
2023-05-23T09:42:42.733Z,100254.00
2023-05-23T09:45:11.319Z,100255.97
2023-05-23T09:47:39.285Z,100246.81
2023-05-23T09:50:08.901Z,100253.56
2023-05-23T09:52:36.750Z,100243.69
2023-05-23T09:55:04.516Z,100252.88
2023-05-23T09:57:32.649Z,100251.44
2023-05-23T10:00:00.586Z,100262.16
2023-05-23T10:02:28.665Z,100260.34
2023-05-23T10:04:56.689Z,100258.78
2023-05-23T10:07:24.579Z,100259.91
2023-05-23T10:09:52.784Z,100261.19
2023-05-23T10:12:20.614Z,100264.25
2023-05-23T10:14:48.510Z,100266.50
2023-05-23T10:17:17.283Z,100264.09
2023-05-23T10:19:45.189Z,100264.25
2023-05-23T10:22:13.956Z,100277.78
2023-05-23T10:24:41.975Z,100279.75
2023-05-23T10:27:09.891Z,100284.38
2023-05-23T10:29:38.123Z,100287.06
2023-05-23T10:32:05.874Z,100294.66
2023-05-23T10:34:34.247Z,100288.00
2023-05-23T10:37:02.094Z,100298.84
2023-05-23T10:39:29.790Z,100309.06
2023-05-23T10:41:58.533Z,100308.75
2023-05-23T10:44:26.612Z,100308.91
2023-05-23T10:46:55.532Z,100319.59
2023-05-23T10:49:23.334Z,100312.09
2023-05-23T10:51:52.120Z,100319.69
2023-05-23T10:54:20.325Z,100324.75
2023-05-23T10:56:48.234Z,100327.94
2023-05-23T10:59:16.327Z,100337.22
2023-05-23T11:01:44.155Z,100334.81
2023-05-23T11:04:11.999Z,100342.97
2023-05-23T11:06:41.471Z,100354.56
2023-05-23T11:09:09.951Z,100343.56
2023-05-23T11:11:38.035Z,100349.50
2023-05-23T11:14:06.286Z,100345.88
2023-05-23T11:16:34.146Z,100344.84
2023-05-23T11:19:02.426Z,100345.72
2023-05-23T11:21:30.300Z,100343.09
2023-05-23T11:23:58.532Z,100338.25
2023-05-23T11:26:26.405Z,100338.81
2023-05-23T11:28:54.274Z,100332.00
2023-05-23T11:31:24.419Z,100323.13
2023-05-23T11:33:52.242Z,100329.72
2023-05-23T11:36:20.675Z,100323.19
2023-05-23T11:38:48.448Z,100320.09
2023-05-23T11:41:16.238Z,100320.00
2023-05-23T11:43:44.154Z,100332.06
2023-05-23T11:46:11.982Z,100330.44
2023-05-23T11:48:40.089Z,100330.63
2023-05-23T11:51:07.895Z,100339.69
2023-05-23T11:53:36.185Z,100333.63
2023-05-23T11:56:04.471Z,100337.31
2023-05-23T11:58:32.415Z,100337.44
2023-05-23T12:01:00.519Z,100354.09
2023-05-23T12:03:28.459Z,100350.41
2023-05-23T12:05:56.604Z,100351.97
2023-05-23T12:08:25.384Z,100361.72
2023-05-23T12:10:53.250Z,100358.78
2023-05-23T12:13:21.685Z,100358.78
2023-05-23T12:15:49.811Z,100353.53
2023-05-23T12:18:20.444Z,100360.59
2023-05-23T12:20:48.455Z,100364.19
2023-05-23T12:23:16.241Z,100367.00
2023-05-23T12:25:44.340Z,100368.38
2023-05-23T12:28:14.229Z,100374.75
2023-05-23T12:30:42.252Z,100365.88
2023-05-23T12:33:10.572Z,100374.53
2023-05-23T12:35:38.609Z,100364.53
2023-05-23T12:38:07.762Z,100364.84
2023-05-23T12:40:35.665Z,100372.75
2023-05-23T12:43:03.694Z,100374.75
2023-05-23T12:45:31.776Z,100381.38
2023-05-23T12:47:59.793Z,100374.84
2023-05-23T12:50:28.454Z,100370.44
2023-05-23T12:52:56.292Z,100366.81
2023-05-23T12:55:24.170Z,100358.44
2023-05-23T12:57:52.409Z,100359.00
2023-05-23T13:00:20.762Z,100364.22
2023-05-23T13:02:49.851Z,100364.66
2023-05-23T13:05:17.728Z,100364.56
2023-05-23T13:07:45.641Z,100361.63
2023-05-23T13:10:14.074Z,100365.69
2023-05-23T13:12:42.069Z,100359.09
2023-05-23T13:15:10.382Z,100358.19
2023-05-23T13:17:38.323Z,100344.72
2023-05-23T13:20:06.578Z,100338.13
2023-05-23T13:22:36.153Z,100336.69
2023-05-23T13:25:04.063Z,100330.81
2023-05-23T13:27:32.371Z,100338.06
2023-05-23T13:30:00.318Z,100332.22
2023-05-23T13:32:28.141Z,100334.47
2023-05-23T13:34:56.393Z,100335.88
2023-05-23T13:37:24.273Z,100333.84
2023-05-23T13:39:52.408Z,100335.44
2023-05-23T13:42:20.398Z,100339.72
2023-05-23T13:44:48.642Z,100336.84
2023-05-23T13:47:16.432Z,100339.75
2023-05-23T13:49:44.533Z,100333.78
2023-05-23T13:52:12.910Z,100334.66
2023-05-23T13:54:41.727Z,100345.34
2023-05-23T13:57:09.696Z,100344.59
2023-05-23T13:59:37.752Z,100338.19
2023-05-23T14:02:05.777Z,100339.84
2023-05-23T14:04:33.916Z,100347.13
2023-05-23T14:07:01.794Z,100347.28
2023-05-23T14:09:29.816Z,100345.47
2023-05-23T14:11:57.983Z,100344.56
2023-05-23T14:14:27.295Z,100345.63
2023-05-23T14:16:55.364Z,100345.78
2023-05-23T14:19:23.425Z,100344.59
2023-05-23T14:21:51.306Z,100344.44
2023-05-23T14:24:19.600Z,100348.50
2023-05-23T14:26:47.758Z,100345.44
2023-05-23T14:29:16.907Z,100345.97
2023-05-23T14:31:44.678Z,100340.72
2023-05-23T14:34:12.750Z,100338.66
2023-05-23T14:36:40.519Z,100340.81
2023-05-23T14:39:10.638Z,100342.69
2023-05-23T14:41:39.264Z,100343.94
2023-05-23T14:44:07.241Z,100345.78
2023-05-23T14:46:35.192Z,100333.78
2023-05-23T14:49:03.391Z,100331.19
2023-05-23T14:51:46.173Z,100317.75
2023-05-23T14:54:18.614Z,100320.78
2023-05-23T14:56:46.507Z,100325.16
2023-05-23T14:59:15.468Z,100332.97
2023-05-23T15:01:43.552Z,100341.16
2023-05-23T15:04:11.685Z,100338.66
2023-05-23T15:06:40.348Z,100342.03
2023-05-23T15:09:10.737Z,100327.84
2023-05-23T15:11:40.564Z,100334.44
2023-05-23T15:14:08.336Z,100336.09
2023-05-23T15:16:37.130Z,100327.16
2023-05-23T15:19:05.453Z,100326.63
2023-05-23T15:21:33.621Z,100333.00
2023-05-23T15:24:02.136Z,100314.81
2023-05-23T15:26:29.897Z,100314.91
2023-05-23T15:28:57.663Z,100320.88
2023-05-23T15:31:25.638Z,100329.22
2023-05-23T15:33:53.538Z,100341.13
2023-05-23T15:36:21.277Z,100336.78
2023-05-23T15:38:49.222Z,100339.03
2023-05-23T15:41:17.091Z,100340.41
2023-05-23T15:43:45.189Z,100330.41
2023-05-23T15:46:13.193Z,100329.41
2023-05-23T15:48:41.260Z,100331.75
2023-05-23T15:51:08.982Z,100338.81
2023-05-23T15:53:47.914Z,100344.06
2023-05-23T15:56:25.373Z,100347.81
2023-05-23T15:58:53.603Z,100342.22
2023-05-23T16:01:21.429Z,100349.72
2023-05-23T16:03:49.188Z,100337.72
2023-05-23T16:06:17.008Z,100340.91
2023-05-23T16:08:45.246Z,100344.56
2023-05-23T16:11:13.001Z,100343.78
2023-05-23T16:13:41.230Z,100342.34
2023-05-23T16:16:08.959Z,100351.59
2023-05-23T16:18:36.718Z,100350.00
2023-05-23T16:21:05.066Z,100353.97
2023-05-23T16:23:33.052Z,100356.66
2023-05-23T16:26:00.846Z,100358.13
2023-05-23T16:28:28.726Z,100356.88
2023-05-23T16:30:56.984Z,100359.25
2023-05-23T16:33:25.173Z,100358.84
2023-05-23T16:35:53.567Z,100366.44
2023-05-23T16:38:22.071Z,100365.34
2023-05-23T16:40:49.988Z,100369.72
2023-05-23T16:43:17.786Z,100364.06
2023-05-23T16:45:46.132Z,100357.50
2023-05-23T16:48:14.181Z,100347.53
2023-05-23T16:50:42.527Z,100344.03
2023-05-23T16:53:10.606Z,100343.56
2023-05-23T16:55:38.323Z,100359.59
2023-05-23T16:58:07.103Z,100359.38
2023-05-23T17:00:35.144Z,100356.91
2023-05-23T17:03:03.152Z,100363.19
2023-05-23T17:05:31.211Z,100364.13
2023-05-23T17:07:58.999Z,100374.72
2023-05-23T17:10:27.188Z,100369.88
2023-05-23T17:12:55.412Z,100363.84
2023-05-23T17:15:23.217Z,100371.84
2023-05-23T17:17:51.181Z,100376.41
2023-05-23T17:20:24.155Z,100372.38
2023-05-23T17:22:52.665Z,100370.72
2023-05-23T17:25:20.800Z,100376.50
2023-05-23T17:27:48.764Z,100381.88
2023-05-23T17:30:18.761Z,100372.81
2023-05-23T17:32:47.365Z,100375.22
2023-05-23T17:35:15.429Z,100372.81
2023-05-23T17:37:45.144Z,100386.00
2023-05-23T17:40:13.181Z,100385.34
2023-05-23T17:42:41.034Z,100383.81
2023-05-23T17:45:09.663Z,100384.00
2023-05-23T17:47:37.892Z,100390.13
2023-05-23T17:50:06.619Z,100383.50
2023-05-23T17:52:34.433Z,100383.75
2023-05-23T17:55:02.296Z,100383.94
2023-05-23T17:57:31.393Z,100389.25
2023-05-23T17:59:59.832Z,100378.38
2023-05-23T18:02:29.293Z,100385.16
2023-05-23T18:04:57.640Z,100390.22
2023-05-23T18:07:25.469Z,100388.25
2023-05-23T18:09:53.343Z,100384.41
2023-05-23T18:12:21.737Z,100387.66
2023-05-23T18:14:49.794Z,100391.03
2023-05-23T18:17:19.495Z,100393.56
2023-05-23T18:19:48.325Z,100399.59
2023-05-23T18:22:16.920Z,100400.13
2023-05-23T18:24:45.693Z,100395.19
2023-05-23T18:27:13.843Z,100396.69
2023-05-23T18:29:41.740Z,100392.75
2023-05-23T18:32:09.602Z,100405.84
2023-05-23T18:34:38.021Z,100402.00
2023-05-23T18:37:05.930Z,100404.22
2023-05-23T18:39:33.994Z,100402.03
2023-05-23T18:42:02.137Z,100399.75
2023-05-23T18:44:29.943Z,100399.44
2023-05-23T18:46:58.300Z,100399.28
2023-05-23T18:49:27.108Z,100409.50
2023-05-23T18:51:55.046Z,100412.72
2023-05-23T18:54:22.834Z,100423.97
2023-05-23T18:56:50.715Z,100417.56
2023-05-23T18:59:18.620Z,100412.72
2023-05-23T19:01:46.946Z,100422.25
2023-05-23T19:04:15.251Z,100433.47
2023-05-23T19:06:43.133Z,100435.91
2023-05-23T19:09:11.840Z,100437.56
2023-05-23T19:11:40.008Z,100443.69
2023-05-23T19:14:08.293Z,100450.75
2023-05-23T19:16:36.483Z,100447.84
2023-05-23T19:19:04.468Z,100453.94
2023-05-23T19:21:32.877Z,100459.03
2023-05-23T19:24:00.701Z,100464.28
2023-05-23T19:26:29.159Z,100458.56
2023-05-23T19:28:56.948Z,100469.16
2023-05-23T19:31:25.353Z,100471.47
2023-05-23T19:33:53.215Z,100472.94
2023-05-23T19:36:21.045Z,100481.41
2023-05-23T19:38:48.826Z,100484.56
2023-05-23T19:41:18.380Z,100486.72
2023-05-23T19:43:48.037Z,100487.00
2023-05-23T19:46:16.329Z,100489.03
2023-05-23T19:48:45.097Z,100488.31
2023-05-23T19:51:13.222Z,100486.84
2023-05-23T19:53:42.655Z,100494.13
2023-05-23T19:56:10.443Z,100496.28
2023-05-23T19:58:38.289Z,100497.53
2023-05-23T20:01:06.135Z,100490.84
2023-05-23T20:03:34.709Z,100496.66
2023-05-23T20:06:02.588Z,100506.72
2023-05-23T20:08:30.524Z,100514.00
2023-05-23T20:10:59.717Z,100514.19
2023-05-23T20:13:28.233Z,100510.09
2023-05-23T20:15:57.027Z,100514.91
2023-05-23T20:18:24.939Z,100525.69
2023-05-23T20:20:52.829Z,100529.31
2023-05-23T20:23:20.739Z,100521.09
2023-05-23T20:25:48.652Z,100534.22
2023-05-23T20:28:16.472Z,100535.19
2023-05-23T20:30:44.490Z,100548.53
2023-05-23T20:33:15.363Z,100554.81
2023-05-23T20:35:43.709Z,100554.94
2023-05-23T20:38:13.844Z,100557.94
2023-05-23T20:40:42.095Z,100561.06
2023-05-23T20:43:10.492Z,100559.81
2023-05-23T20:45:38.335Z,100555.91
2023-05-23T20:48:06.373Z,100566.97
2023-05-23T20:50:35.678Z,100560.44
2023-05-23T20:53:03.850Z,100563.19
2023-05-23T20:55:35.149Z,100568.63
2023-05-23T20:58:03.005Z,100569.84
2023-05-23T21:00:31.358Z,100571.75
2023-05-23T21:03:02.405Z,100579.09
2023-05-23T21:05:30.363Z,100576.91
2023-05-23T21:07:58.380Z,100582.56
2023-05-23T21:10:26.616Z,100577.56
2023-05-23T21:12:54.380Z,100576.19
2023-05-23T21:15:22.284Z,100581.94
2023-05-23T21:17:51.789Z,100589.44
2023-05-23T21:20:21.624Z,100584.53
2023-05-23T21:22:49.775Z,100583.03
2023-05-23T21:25:17.536Z,100581.56
2023-05-23T21:27:45.308Z,100580.84
2023-05-23T21:30:13.451Z,100577.41
2023-05-23T21:32:41.331Z,100583.06
2023-05-23T21:35:09.067Z,100591.38
2023-05-23T21:37:36.837Z,100585.31
2023-05-23T21:40:04.607Z,100585.72
2023-05-23T21:42:32.637Z,100587.84
2023-05-23T21:45:02.204Z,100588.19
2023-05-23T21:47:29.862Z,100581.47
2023-05-23T21:49:57.595Z,100581.78
2023-05-23T21:52:25.395Z,100578.59
2023-05-23T21:54:53.511Z,100583.25
2023-05-23T21:57:21.476Z,100587.13
2023-05-23T21:59:49.225Z,100590.19
2023-05-23T22:02:17.348Z,100589.75
2023-05-23T22:04:46.291Z,100587.59
2023-05-23T22:07:14.342Z,100575.56
2023-05-23T22:09:42.227Z,100578.66
2023-05-23T22:12:09.990Z,100580.84
2023-05-23T22:14:37.724Z,100580.38
2023-05-23T22:17:05.390Z,100584.41
2023-05-23T22:19:33.471Z,100588.44
2023-05-23T22:22:01.443Z,100587.97
2023-05-23T22:24:29.387Z,100583.06
2023-05-23T22:26:58.406Z,100583.47
2023-05-23T22:29:26.516Z,100589.19
2023-05-23T22:31:54.251Z,100582.47
2023-05-23T22:34:21.924Z,100594.34
2023-05-23T22:36:49.633Z,100584.97
2023-05-23T22:39:17.268Z,100593.22
2023-05-23T22:41:44.966Z,100591.81
2023-05-23T22:44:12.977Z,100583.19
2023-05-23T22:46:43.657Z,100588.69
2023-05-23T22:49:11.462Z,100577.41
2023-05-23T22:51:40.357Z,100586.44
2023-05-23T22:54:08.013Z,100584.91
2023-05-23T22:56:36.074Z,100585.97
2023-05-23T22:59:03.942Z,100588.81
2023-05-23T23:01:31.612Z,100586.34
2023-05-23T23:03:59.343Z,100591.00
2023-05-23T23:06:27.029Z,100591.19
2023-05-23T23:08:55.015Z,100584.47
2023-05-23T23:11:22.789Z,100595.38
2023-05-23T23:13:50.967Z,100594.72
2023-05-23T23:16:19.622Z,100592.16
2023-05-23T23:18:47.630Z,100591.47
2023-05-23T23:21:15.669Z,100583.59
2023-05-23T23:23:43.756Z,100597.81
2023-05-23T23:26:11.458Z,100591.84
2023-05-23T23:28:39.120Z,100598.19
2023-05-23T23:31:06.809Z,100603.78
2023-05-23T23:33:34.848Z,100600.47
2023-05-23T23:36:02.715Z,100602.47
2023-05-23T23:38:30.322Z,100597.44
2023-05-23T23:40:57.926Z,100597.63
2023-05-23T23:43:25.598Z,100600.56
2023-05-23T23:45:53.621Z,100605.13
2023-05-23T23:48:21.237Z,100600.06
2023-05-23T23:50:48.937Z,100600.25
2023-05-23T23:53:17.009Z,100613.72
2023-05-23T23:55:44.722Z,100613.06
2023-05-23T23:58:13.093Z,100613.13
